This is the latest recevied weather packets stored in our database for station/object IV3CVE-H1. If no packets are shown the sender has not sent any weather packets the latest 10 day(s).
| Time | Temp. | Humidity | Pressure | Rain* | Wind** | Luminosity | Snow |
|---|---|---|---|---|---|---|---|
| 1777969516 | 17.22° C | 82% | 1012.6 hPa | 0 mm | - | - | - |
| 1777968316 | 16.67° C | 81% | 1012.5 hPa | 0 mm | - | - | - |
| 1777960516 | 14.44° C | 85% | 1012.2 hPa | 0 mm | - | - | - |
| 1777953916 | 13.33° C | 90% | 1011.9 hPa | 0 mm | - | - | - |
| 1777950316 | 13.33° C | 90% | 1012.1 hPa | 0 mm | - | - | - |
| 1777949116 | 13.33° C | 90% | 1012.3 hPa | 0 mm | - | - | - |
| 1777948516 | 13.33° C | 90% | 1012.3 hPa | 0 mm | - | - | - |
| 1777947915 | 13.33° C | 89% | 1012.3 hPa | 0 mm | - | - | - |
| 1777946717 | 13.89° C | 89% | 1012.5 hPa | 0 mm | - | - | - |
| 1777946117 | 13.89° C | 90% | 1012.7 hPa | 0 mm | - | - | - |
| 1777941315 | 11.67° C | 90% | 1013.4 hPa | 0 mm | - | - | - |
| 1777940117 | 11.67° C | 89% | 1013.5 hPa | 0 mm | - | - | - |
| 1777936517 | 12.78° C | 85% | 1014 hPa | 0 mm | - | - | - |
| 1777932936 | 13.33° C | 83% | 1014.2 hPa | 0 mm | - | - | - |
| 1777931717 | 13.33° C | 84% | 1014.4 hPa | 0 mm | - | - | - |
| 1777931117 | 13.33° C | 84% | 1014.4 hPa | 0 mm | - | - | - |
| 1777925715 | 15° C | 79% | 1014.5 hPa | 0 mm | - | - | - |
| 1777924517 | 15.56° C | 78% | 1014.4 hPa | 0 mm | - | - | - |
| 1777922117 | 16.67° C | 73% | 1014.1 hPa | 0 mm | - | - | - |
| 1777913117 | 22.22° C | 60% | 1013.4 hPa | 0 mm | - | - | - |
| 1777910117 | 22.78° C | 63% | 1013.4 hPa | 0 mm | - | - | - |
| 1777909517 | 22.78° C | 62% | 1013.4 hPa | 0 mm | - | - | - |
| 1777908917 | 23.33° C | 59% | 1013.4 hPa | 0 mm | - | - | - |
| 1777906517 | 23.89° C | 52% | 1013.7 hPa | 0 mm | - | - | - |
| 1777901117 | 24.44° C | 52% | 1014.2 hPa | 0 mm | - | - | - |
* Rain latest hour (hover to see other rain measurements)
** Current wind speed in m/s (hover to see current wind gust speed)